sensor_id;sensor_type;location;lat;lon;timestamp;P1;durP1;ratioP1;P2;durP2;ratioP2
71869;SDS011;59739;47.696;11.746;2022-11-02T00:01:00;5.00;;;2.20;;
71869;SDS011;59739;47.696;11.746;2022-11-02T00:03:43;4.15;;;2.78;;
71869;SDS011;59739;47.696;11.746;2022-11-02T00:06:09;4.68;;;2.17;;
71869;SDS011;59739;47.696;11.746;2022-11-02T00:08:35;3.50;;;2.55;;
71869;SDS011;59739;47.696;11.746;2022-11-02T00:11:01;4.10;;;2.30;;
71869;SDS011;59739;47.696;11.746;2022-11-02T00:13:27;6.47;;;2.50;;
71869;SDS011;59739;47.696;11.746;2022-11-02T00:15:53;5.68;;;2.45;;
71869;SDS011;59739;47.696;11.746;2022-11-02T00:18:19;3.83;;;2.30;;
71869;SDS011;59739;47.696;11.746;2022-11-02T00:20:46;4.22;;;2.33;;
71869;SDS011;59739;47.696;11.746;2022-11-02T00:23:12;6.78;;;2.63;;
71869;SDS011;59739;47.696;11.746;2022-11-02T00:25:39;4.07;;;2.22;;
71869;SDS011;59739;47.696;11.746;2022-11-02T00:28:09;3.80;;;2.30;;
71869;SDS011;59739;47.696;11.746;2022-11-02T00:30:36;3.97;;;2.03;;
71869;SDS011;59739;47.696;11.746;2022-11-02T00:33:03;5.43;;;2.55;;
71869;SDS011;59739;47.696;11.746;2022-11-02T00:35:29;6.45;;;2.20;;
71869;SDS011;59739;47.696;11.746;2022-11-02T00:37:55;4.70;;;2.40;;
71869;SDS011;59739;47.696;11.746;2022-11-02T00:40:22;4.78;;;2.17;;
71869;SDS011;59739;47.696;11.746;2022-11-02T00:42:48;7.93;;;2.72;;
71869;SDS011;59739;47.696;11.746;2022-11-02T00:45:15;5.22;;;2.58;;
71869;SDS011;59739;47.696;11.746;2022-11-02T00:47:41;6.20;;;2.50;;
71869;SDS011;59739;47.696;11.746;2022-11-02T00:50:07;5.00;;;2.72;;
71869;SDS011;59739;47.696;11.746;2022-11-02T00:52:39;4.07;;;3.00;;
71869;SDS011;59739;47.696;11.746;2022-11-02T00:55:07;7.85;;;3.15;;
71869;SDS011;59739;47.696;11.746;2022-11-02T00:57:37;4.72;;;2.72;;
71869;SDS011;59739;47.696;11.746;2022-11-02T01:00:06;5.85;;;2.47;;
71869;SDS011;59739;47.696;11.746;2022-11-02T01:02:35;4.15;;;2.78;;
71869;SDS011;59739;47.696;11.746;2022-11-02T01:05:02;5.75;;;2.35;;
71869;SDS011;59739;47.696;11.746;2022-11-02T01:07:29;6.30;;;2.60;;
71869;SDS011;59739;47.696;11.746;2022-11-02T01:09:55;4.03;;;2.53;;
71869;SDS011;59739;47.696;11.746;2022-11-02T01:12:22;6.50;;;2.78;;
71869;SDS011;59739;47.696;11.746;2022-11-02T01:14:48;4.30;;;2.17;;
71869;SDS011;59739;47.696;11.746;2022-11-02T01:17:15;4.70;;;2.17;;
71869;SDS011;59739;47.696;11.746;2022-11-02T01:19:42;3.22;;;2.22;;
71869;SDS011;59739;47.696;11.746;2022-11-02T01:22:08;6.35;;;2.42;;
71869;SDS011;59739;47.696;11.746;2022-11-02T01:24:34;3.58;;;2.30;;
71869;SDS011;59739;47.696;11.746;2022-11-02T01:27:01;3.28;;;1.90;;
71869;SDS011;59739;47.696;11.746;2022-11-02T01:29:27;3.08;;;2.30;;
71869;SDS011;59739;47.696;11.746;2022-11-02T01:31:56;3.85;;;2.20;;
71869;SDS011;59739;47.696;11.746;2022-11-02T01:34:23;4.22;;;1.80;;
71869;SDS011;59739;47.696;11.746;2022-11-02T01:36:49;4.28;;;2.03;;
71869;SDS011;59739;47.696;11.746;2022-11-02T01:39:15;7.80;;;2.10;;
71869;SDS011;59739;47.696;11.746;2022-11-02T01:41:41;3.10;;;2.25;;
71869;SDS011;59739;47.696;11.746;2022-11-02T01:44:28;5.40;;;2.45;;
71869;SDS011;59739;47.696;11.746;2022-11-02T01:49:31;3.75;;;2.00;;
71869;SDS011;59739;47.696;11.746;2022-11-02T01:52:10;3.05;;;2.40;;
71869;SDS011;59739;47.696;11.746;2022-11-02T01:54:50;3.28;;;2.05;;
71869;SDS011;59739;47.696;11.746;2022-11-02T01:57:22;5.25;;;2.00;;
71869;SDS011;59739;47.696;11.746;2022-11-02T01:59:56;3.50;;;2.15;;
71869;SDS011;59739;47.696;11.746;2022-11-02T02:02:41;3.63;;;2.10;;
71869;SDS011;59739;47.696;11.746;2022-11-02T02:05:17;9.00;;;2.25;;
71869;SDS011;59739;47.696;11.746;2022-11-02T02:07:45;5.65;;;2.45;;
71869;SDS011;59739;47.696;11.746;2022-11-02T02:10:11;4.43;;;1.90;;
71869;SDS011;59739;47.696;11.746;2022-11-02T02:12:38;5.70;;;2.10;;
71869;SDS011;59739;47.696;11.746;2022-11-02T02:15:06;4.25;;;2.35;;
71869;SDS011;59739;47.696;11.746;2022-11-02T02:34:08;5.45;;;2.08;;
71869;SDS011;59739;47.696;11.746;2022-11-02T02:36:46;3.53;;;1.92;;
71869;SDS011;59739;47.696;11.746;2022-11-02T02:39:27;4.25;;;2.35;;
71869;SDS011;59739;47.696;11.746;2022-11-02T02:42:11;4.28;;;2.42;;
71869;SDS011;59739;47.696;11.746;2022-11-02T02:44:58;5.88;;;2.38;;
71869;SDS011;59739;47.696;11.746;2022-11-02T02:47:41;3.05;;;2.00;;
71869;SDS011;59739;47.696;11.746;2022-11-02T02:50:15;3.60;;;1.77;;
71869;SDS011;59739;47.696;11.746;2022-11-02T02:52:48;4.53;;;2.10;;
71869;SDS011;59739;47.696;11.746;2022-11-02T02:55:17;3.85;;;1.83;;
71869;SDS011;59739;47.696;11.746;2022-11-02T02:57:52;2.95;;;1.80;;
71869;SDS011;59739;47.696;11.746;2022-11-02T03:00:21;3.40;;;2.10;;
71869;SDS011;59739;47.696;11.746;2022-11-02T03:02:47;6.93;;;2.60;;
71869;SDS011;59739;47.696;11.746;2022-11-02T03:05:28;5.35;;;2.10;;
71869;SDS011;59739;47.696;11.746;2022-11-02T03:08:12;5.45;;;2.50;;
71869;SDS011;59739;47.696;11.746;2022-11-02T03:10:43;3.72;;;1.90;;
71869;SDS011;59739;47.696;11.746;2022-11-02T03:16:30;4.40;;;1.90;;
71869;SDS011;59739;47.696;11.746;2022-11-02T03:19:22;4.22;;;1.77;;
71869;SDS011;59739;47.696;11.746;2022-11-02T03:21:54;4.75;;;2.60;;
71869;SDS011;59739;47.696;11.746;2022-11-02T03:25:04;5.07;;;2.13;;
71869;SDS011;59739;47.696;11.746;2022-11-02T03:28:08;3.83;;;2.08;;
71869;SDS011;59739;47.696;11.746;2022-11-02T03:30:59;3.88;;;2.20;;
71869;SDS011;59739;47.696;11.746;2022-11-02T03:33:34;3.40;;;1.77;;
71869;SDS011;59739;47.696;11.746;2022-11-02T03:36:09;4.13;;;1.95;;
71869;SDS011;59739;47.696;11.746;2022-11-02T03:38:44;4.43;;;1.85;;
71869;SDS011;59739;47.696;11.746;2022-11-02T03:41:16;6.53;;;1.98;;
71869;SDS011;59739;47.696;11.746;2022-11-02T03:43:45;2.92;;;1.90;;
71869;SDS011;59739;47.696;11.746;2022-11-02T03:46:13;3.22;;;1.98;;
71869;SDS011;59739;47.696;11.746;2022-11-02T03:48:43;4.47;;;1.90;;
71869;SDS011;59739;47.696;11.746;2022-11-02T03:51:16;5.15;;;1.90;;
71869;SDS011;59739;47.696;11.746;2022-11-02T03:53:58;6.30;;;2.30;;
71869;SDS011;59739;47.696;11.746;2022-11-02T03:56:37;5.35;;;2.63;;
71869;SDS011;59739;47.696;11.746;2022-11-02T03:59:07;5.22;;;2.30;;
71869;SDS011;59739;47.696;11.746;2022-11-02T04:01:38;5.35;;;2.92;;
71869;SDS011;59739;47.696;11.746;2022-11-02T04:04:17;6.63;;;2.67;;
71869;SDS011;59739;47.696;11.746;2022-11-02T04:06:44;6.15;;;2.70;;
71869;SDS011;59739;47.696;11.746;2022-11-02T04:09:12;4.88;;;2.30;;
71869;SDS011;59739;47.696;11.746;2022-11-02T04:11:39;4.95;;;2.10;;
71869;SDS011;59739;47.696;11.746;2022-11-02T04:14:26;5.97;;;2.42;;
71869;SDS011;59739;47.696;11.746;2022-11-02T04:17:09;4.22;;;2.55;;
71869;SDS011;59739;47.696;11.746;2022-11-02T04:19:56;4.93;;;2.30;;
71869;SDS011;59739;47.696;11.746;2022-11-02T04:22:23;5.15;;;2.85;;
71869;SDS011;59739;47.696;11.746;2022-11-02T04:25:18;5.75;;;3.03;;
71869;SDS011;59739;47.696;11.746;2022-11-02T04:27:54;5.93;;;2.15;;
71869;SDS011;59739;47.696;11.746;2022-11-02T04:30:28;4.70;;;2.20;;
71869;SDS011;59739;47.696;11.746;2022-11-02T04:32:56;5.63;;;2.45;;
71869;SDS011;59739;47.696;11.746;2022-11-02T04:35:52;3.22;;;2.20;;
71869;SDS011;59739;47.696;11.746;2022-11-02T04:38:19;4.30;;;2.20;;
71869;SDS011;59739;47.696;11.746;2022-11-02T04:41:04;6.95;;;2.75;;
71869;SDS011;59739;47.696;11.746;2022-11-02T04:43:56;5.10;;;2.60;;
71869;SDS011;59739;47.696;11.746;2022-11-02T04:46:23;3.47;;;2.20;;
71869;SDS011;59739;47.696;11.746;2022-11-02T04:48:51;5.00;;;2.63;;
71869;SDS011;59739;47.696;11.746;2022-11-02T04:51:21;4.72;;;2.38;;
71869;SDS011;59739;47.696;11.746;2022-11-02T04:53:49;5.35;;;2.88;;
71869;SDS011;59739;47.696;11.746;2022-11-02T04:56:22;4.95;;;2.58;;
71869;SDS011;59739;47.696;11.746;2022-11-02T04:58:50;3.45;;;2.40;;
71869;SDS011;59739;47.696;11.746;2022-11-02T05:01:19;3.97;;;2.60;;
71869;SDS011;59739;47.696;11.746;2022-11-02T05:03:46;4.03;;;2.65;;
71869;SDS011;59739;47.696;11.746;2022-11-02T05:06:14;5.60;;;2.53;;
71869;SDS011;59739;47.696;11.746;2022-11-02T05:08:41;6.03;;;2.92;;
71869;SDS011;59739;47.696;11.746;2022-11-02T05:11:08;6.90;;;2.75;;
71869;SDS011;59739;47.696;11.746;2022-11-02T05:13:36;4.43;;;2.50;;
71869;SDS011;59739;47.696;11.746;2022-11-02T05:16:04;7.68;;;2.80;;
71869;SDS011;59739;47.696;11.746;2022-11-02T05:18:31;5.65;;;2.75;;
71869;SDS011;59739;47.696;11.746;2022-11-02T05:20:59;3.97;;;2.20;;
71869;SDS011;59739;47.696;11.746;2022-11-02T05:23:27;7.03;;;2.50;;
71869;SDS011;59739;47.696;11.746;2022-11-02T05:25:58;4.18;;;2.55;;
71869;SDS011;59739;47.696;11.746;2022-11-02T05:28:29;5.70;;;2.90;;
71869;SDS011;59739;47.696;11.746;2022-11-02T05:30:57;6.20;;;3.65;;
71869;SDS011;59739;47.696;11.746;2022-11-02T05:33:26;5.60;;;3.60;;
71869;SDS011;59739;47.696;11.746;2022-11-02T05:36:09;5.97;;;2.75;;
71869;SDS011;59739;47.696;11.746;2022-11-02T05:38:38;5.15;;;3.15;;
71869;SDS011;59739;47.696;11.746;2022-11-02T05:41:07;4.10;;;3.20;;
71869;SDS011;59739;47.696;11.746;2022-11-02T05:43:36;4.75;;;2.60;;
71869;SDS011;59739;47.696;11.746;2022-11-02T05:46:04;6.97;;;2.50;;
71869;SDS011;59739;47.696;11.746;2022-11-02T05:48:31;6.32;;;2.85;;
71869;SDS011;59739;47.696;11.746;2022-11-02T05:50:58;4.75;;;2.50;;
71869;SDS011;59739;47.696;11.746;2022-11-02T05:53:27;4.88;;;2.75;;
71869;SDS011;59739;47.696;11.746;2022-11-02T05:56:02;7.93;;;2.60;;
71869;SDS011;59739;47.696;11.746;2022-11-02T05:58:31;4.47;;;2.60;;
71869;SDS011;59739;47.696;11.746;2022-11-02T06:00:58;8.65;;;3.88;;
71869;SDS011;59739;47.696;11.746;2022-11-02T06:03:26;12.90;;;6.40;;
71869;SDS011;59739;47.696;11.746;2022-11-02T06:06:00;7.68;;;3.60;;
71869;SDS011;59739;47.696;11.746;2022-11-02T06:08:33;5.05;;;2.80;;
71869;SDS011;59739;47.696;11.746;2022-11-02T06:11:07;6.80;;;3.23;;
71869;SDS011;59739;47.696;11.746;2022-11-02T06:13:38;6.28;;;2.50;;
71869;SDS011;59739;47.696;11.746;2022-11-02T06:16:26;7.32;;;3.08;;
71869;SDS011;59739;47.696;11.746;2022-11-02T06:18:52;6.22;;;2.60;;
71869;SDS011;59739;47.696;11.746;2022-11-02T06:21:18;6.85;;;3.05;;
71869;SDS011;59739;47.696;11.746;2022-11-02T06:23:51;5.10;;;2.97;;
71869;SDS011;59739;47.696;11.746;2022-11-02T06:26:23;3.85;;;2.50;;
71869;SDS011;59739;47.696;11.746;2022-11-02T06:28:49;5.88;;;3.15;;
71869;SDS011;59739;47.696;11.746;2022-11-02T06:31:15;4.85;;;3.22;;
71869;SDS011;59739;47.696;11.746;2022-11-02T06:33:42;6.00;;;3.13;;
71869;SDS011;59739;47.696;11.746;2022-11-02T06:36:10;6.03;;;2.70;;
71869;SDS011;59739;47.696;11.746;2022-11-02T06:38:36;6.57;;;2.90;;
71869;SDS011;59739;47.696;11.746;2022-11-02T06:41:02;7.18;;;2.92;;
71869;SDS011;59739;47.696;11.746;2022-11-02T06:43:32;7.00;;;2.72;;
71869;SDS011;59739;47.696;11.746;2022-11-02T06:46:00;5.40;;;2.88;;
71869;SDS011;59739;47.696;11.746;2022-11-02T06:48:26;5.75;;;2.85;;
71869;SDS011;59739;47.696;11.746;2022-11-02T06:50:53;5.65;;;2.70;;
71869;SDS011;59739;47.696;11.746;2022-11-02T06:53:19;5.57;;;3.05;;
71869;SDS011;59739;47.696;11.746;2022-11-02T06:55:50;5.65;;;2.72;;
71869;SDS011;59739;47.696;11.746;2022-11-02T06:58:23;7.00;;;2.72;;
71869;SDS011;59739;47.696;11.746;2022-11-02T07:00:57;6.47;;;2.95;;
71869;SDS011;59739;47.696;11.746;2022-11-02T07:03:26;4.90;;;2.70;;
71869;SDS011;59739;47.696;11.746;2022-11-02T07:05:54;5.70;;;2.80;;
71869;SDS011;59739;47.696;11.746;2022-11-02T07:08:21;8.35;;;3.00;;
71869;SDS011;59739;47.696;11.746;2022-11-02T07:10:48;10.48;;;2.95;;
71869;SDS011;59739;47.696;11.746;2022-11-02T07:13:14;6.63;;;3.42;;
71869;SDS011;59739;47.696;11.746;2022-11-02T07:15:44;6.38;;;2.70;;
71869;SDS011;59739;47.696;11.746;2022-11-02T07:18:11;5.63;;;2.90;;
71869;SDS011;59739;47.696;11.746;2022-11-02T07:20:38;7.22;;;3.40;;
71869;SDS011;59739;47.696;11.746;2022-11-02T07:23:04;7.47;;;3.15;;
71869;SDS011;59739;47.696;11.746;2022-11-02T07:25:34;6.25;;;2.97;;
71869;SDS011;59739;47.696;11.746;2022-11-02T07:28:01;8.70;;;3.10;;
71869;SDS011;59739;47.696;11.746;2022-11-02T07:30:31;7.22;;;3.25;;
71869;SDS011;59739;47.696;11.746;2022-11-02T07:32:58;6.05;;;2.92;;
71869;SDS011;59739;47.696;11.746;2022-11-02T07:35:24;5.03;;;2.92;;
71869;SDS011;59739;47.696;11.746;2022-11-02T07:37:54;6.50;;;3.35;;
71869;SDS011;59739;47.696;11.746;2022-11-02T07:40:28;6.65;;;2.95;;
71869;SDS011;59739;47.696;11.746;2022-11-02T07:42:55;5.10;;;3.00;;
71869;SDS011;59739;47.696;11.746;2022-11-02T07:45:44;5.88;;;2.50;;
71869;SDS011;59739;47.696;11.746;2022-11-02T07:48:10;6.55;;;2.72;;
71869;SDS011;59739;47.696;11.746;2022-11-02T07:50:36;5.40;;;2.70;;
71869;SDS011;59739;47.696;11.746;2022-11-02T07:53:02;6.97;;;3.05;;
71869;SDS011;59739;47.696;11.746;2022-11-02T07:55:29;6.68;;;2.70;;
71869;SDS011;59739;47.696;11.746;2022-11-02T08:00:28;7.68;;;3.45;;
71869;SDS011;59739;47.696;11.746;2022-11-02T08:02:58;7.57;;;3.75;;
71869;SDS011;59739;47.696;11.746;2022-11-02T08:05:25;6.78;;;3.20;;
71869;SDS011;59739;47.696;11.746;2022-11-02T08:10:22;5.97;;;3.33;;
71869;SDS011;59739;47.696;11.746;2022-11-02T08:12:49;6.15;;;3.65;;
71869;SDS011;59739;47.696;11.746;2022-11-02T08:15:15;5.53;;;3.17;;
71869;SDS011;59739;47.696;11.746;2022-11-02T08:17:41;6.35;;;2.90;;
71869;SDS011;59739;47.696;11.746;2022-11-02T08:20:07;4.82;;;3.30;;
71869;SDS011;59739;47.696;11.746;2022-11-02T08:22:38;6.57;;;2.40;;
71869;SDS011;59739;47.696;11.746;2022-11-02T08:25:05;5.85;;;2.22;;
71869;SDS011;59739;47.696;11.746;2022-11-02T08:27:32;5.18;;;2.42;;
71869;SDS011;59739;47.696;11.746;2022-11-02T08:29:58;5.25;;;2.83;;
71869;SDS011;59739;47.696;11.746;2022-11-02T08:32:24;4.88;;;2.70;;
71869;SDS011;59739;47.696;11.746;2022-11-02T08:34:50;8.38;;;2.88;;
71869;SDS011;59739;47.696;11.746;2022-11-02T08:37:16;7.65;;;2.60;;
71869;SDS011;59739;47.696;11.746;2022-11-02T08:39:42;4.25;;;2.38;;
71869;SDS011;59739;47.696;11.746;2022-11-02T08:42:08;4.85;;;2.28;;
71869;SDS011;59739;47.696;11.746;2022-11-02T08:44:34;4.32;;;2.70;;
71869;SDS011;59739;47.696;11.746;2022-11-02T08:47:00;3.58;;;2.17;;
71869;SDS011;59739;47.696;11.746;2022-11-02T08:49:26;5.82;;;2.58;;
71869;SDS011;59739;47.696;11.746;2022-11-02T08:51:52;6.15;;;2.10;;
71869;SDS011;59739;47.696;11.746;2022-11-02T08:54:18;3.63;;;2.08;;
71869;SDS011;59739;47.696;11.746;2022-11-02T08:56:44;2.83;;;1.92;;
71869;SDS011;59739;47.696;11.746;2022-11-02T08:59:10;4.10;;;2.10;;
71869;SDS011;59739;47.696;11.746;2022-11-02T09:01:36;4.03;;;1.50;;
71869;SDS011;59739;47.696;11.746;2022-11-02T09:04:03;4.15;;;1.42;;
71869;SDS011;59739;47.696;11.746;2022-11-02T09:06:29;3.65;;;1.30;;
71869;SDS011;59739;47.696;11.746;2022-11-02T09:08:55;3.33;;;1.08;;
71869;SDS011;59739;47.696;11.746;2022-11-02T09:11:21;5.28;;;1.42;;
71869;SDS011;59739;47.696;11.746;2022-11-02T09:13:48;2.20;;;1.30;;
71869;SDS011;59739;47.696;11.746;2022-11-02T09:16:14;3.53;;;1.55;;
71869;SDS011;59739;47.696;11.746;2022-11-02T09:18:40;3.65;;;1.88;;
71869;SDS011;59739;47.696;11.746;2022-11-02T09:21:06;3.10;;;1.40;;
71869;SDS011;59739;47.696;11.746;2022-11-02T09:23:33;2.53;;;1.25;;
71869;SDS011;59739;47.696;11.746;2022-11-02T09:25:59;3.67;;;1.30;;
71869;SDS011;59739;47.696;11.746;2022-11-02T09:28:25;3.17;;;1.05;;
71869;SDS011;59739;47.696;11.746;2022-11-02T09:30:52;2.15;;;1.20;;
71869;SDS011;59739;47.696;11.746;2022-11-02T09:33:18;2.00;;;1.17;;
71869;SDS011;59739;47.696;11.746;2022-11-02T09:35:45;5.95;;;1.40;;
71869;SDS011;59739;47.696;11.746;2022-11-02T09:38:13;4.28;;;1.25;;
71869;SDS011;59739;47.696;11.746;2022-11-02T09:43:48;2.22;;;1.10;;
71869;SDS011;59739;47.696;11.746;2022-11-02T09:46:32;5.18;;;1.10;;
71869;SDS011;59739;47.696;11.746;2022-11-02T09:49:02;3.30;;;1.30;;
71869;SDS011;59739;47.696;11.746;2022-11-02T09:51:39;3.42;;;1.50;;
71869;SDS011;59739;47.696;11.746;2022-11-02T09:57:04;3.17;;;1.40;;
71869;SDS011;59739;47.696;11.746;2022-11-02T09:59:35;2.75;;;1.20;;
71869;SDS011;59739;47.696;11.746;2022-11-02T10:02:08;6.60;;;1.50;;
71869;SDS011;59739;47.696;11.746;2022-11-02T10:11:03;1.50;;;1.30;;
71869;SDS011;59739;47.696;11.746;2022-11-02T10:13:44;2.60;;;1.45;;
71869;SDS011;59739;47.696;11.746;2022-11-02T10:16:20;1.33;;;1.10;;
71869;SDS011;59739;47.696;11.746;2022-11-02T10:18:59;2.40;;;1.15;;
71869;SDS011;59739;47.696;11.746;2022-11-02T10:21:37;4.35;;;1.27;;
71869;SDS011;59739;47.696;11.746;2022-11-02T10:24:11;2.20;;;1.10;;
71869;SDS011;59739;47.696;11.746;2022-11-02T10:29:45;3.22;;;1.20;;
71869;SDS011;59739;47.696;11.746;2022-11-02T10:32:31;4.38;;;1.35;;
71869;SDS011;59739;47.696;11.746;2022-11-02T10:35:00;6.30;;;1.40;;
71869;SDS011;59739;47.696;11.746;2022-11-02T10:43:42;3.47;;;1.23;;
71869;SDS011;59739;47.696;11.746;2022-11-02T10:52:23;2.75;;;1.25;;
71869;SDS011;59739;47.696;11.746;2022-11-02T10:54:50;2.45;;;1.30;;
71869;SDS011;59739;47.696;11.746;2022-11-02T10:57:21;5.68;;;1.40;;
71869;SDS011;59739;47.696;11.746;2022-11-02T11:03:08;4.45;;;1.80;;
71869;SDS011;59739;47.696;11.746;2022-11-02T11:05:35;5.40;;;2.13;;
71869;SDS011;59739;47.696;11.746;2022-11-02T11:08:27;3.05;;;1.40;;
71869;SDS011;59739;47.696;11.746;2022-11-02T11:11:09;3.20;;;1.45;;
71869;SDS011;59739;47.696;11.746;2022-11-02T11:13:43;4.72;;;1.45;;
71869;SDS011;59739;47.696;11.746;2022-11-02T11:19:33;2.15;;;1.23;;
71869;SDS011;59739;47.696;11.746;2022-11-02T11:22:03;2.72;;;1.27;;
71869;SDS011;59739;47.696;11.746;2022-11-02T11:24:52;3.70;;;1.40;;
71869;SDS011;59739;47.696;11.746;2022-11-02T11:27:47;2.63;;;1.25;;
71869;SDS011;59739;47.696;11.746;2022-11-02T11:30:23;4.38;;;1.35;;
71869;SDS011;59739;47.696;11.746;2022-11-02T11:32:58;3.63;;;1.20;;
71869;SDS011;59739;47.696;11.746;2022-11-02T11:35:33;4.10;;;1.10;;
71869;SDS011;59739;47.696;11.746;2022-11-02T11:38:04;5.28;;;2.05;;
71869;SDS011;59739;47.696;11.746;2022-11-02T11:40:38;3.20;;;1.73;;
71869;SDS011;59739;47.696;11.746;2022-11-02T11:43:14;3.25;;;1.30;;
71869;SDS011;59739;47.696;11.746;2022-11-02T11:45:54;5.35;;;1.80;;
71869;SDS011;59739;47.696;11.746;2022-11-02T11:48:34;2.30;;;1.40;;
71869;SDS011;59739;47.696;11.746;2022-11-02T11:51:24;3.75;;;1.48;;
71869;SDS011;59739;47.696;11.746;2022-11-02T11:54:15;3.50;;;1.35;;
71869;SDS011;59739;47.696;11.746;2022-11-02T11:57:16;3.95;;;1.30;;
71869;SDS011;59739;47.696;11.746;2022-11-02T11:59:57;5.63;;;2.00;;
71869;SDS011;59739;47.696;11.746;2022-11-02T12:02:30;6.45;;;1.45;;
71869;SDS011;59739;47.696;11.746;2022-11-02T12:10:36;4.00;;;1.20;;
71869;SDS011;59739;47.696;11.746;2022-11-02T12:22:31;4.55;;;1.60;;
71869;SDS011;59739;47.696;11.746;2022-11-02T12:28:27;3.72;;;1.40;;
71869;SDS011;59739;47.696;11.746;2022-11-02T12:55:46;4.47;;;1.27;;
71869;SDS011;59739;47.696;11.746;2022-11-02T12:58:19;3.65;;;1.50;;
71869;SDS011;59739;47.696;11.746;2022-11-02T13:00:56;3.50;;;1.17;;
71869;SDS011;59739;47.696;11.746;2022-11-02T13:06:38;3.72;;;1.70;;
71869;SDS011;59739;47.696;11.746;2022-11-02T13:11:53;4.43;;;1.17;;
71869;SDS011;59739;47.696;11.746;2022-11-02T13:14:27;3.35;;;1.60;;
71869;SDS011;59739;47.696;11.746;2022-11-02T13:17:13;6.68;;;1.55;;
71869;SDS011;59739;47.696;11.746;2022-11-02T13:20:16;3.35;;;1.80;;
71869;SDS011;59739;47.696;11.746;2022-11-02T13:22:56;4.60;;;1.60;;
71869;SDS011;59739;47.696;11.746;2022-11-02T13:25:33;4.95;;;1.50;;
71869;SDS011;59739;47.696;11.746;2022-11-02T13:28:10;2.30;;;1.30;;
71869;SDS011;59739;47.696;11.746;2022-11-02T13:30:43;5.93;;;1.40;;
71869;SDS011;59739;47.696;11.746;2022-11-02T13:33:22;3.83;;;1.35;;
71869;SDS011;59739;47.696;11.746;2022-11-02T13:35:54;3.88;;;1.88;;
71869;SDS011;59739;47.696;11.746;2022-11-02T13:38:28;4.15;;;1.42;;
71869;SDS011;59739;47.696;11.746;2022-11-02T13:50:23;3.10;;;1.13;;
71869;SDS011;59739;47.696;11.746;2022-11-02T13:52:55;5.53;;;1.60;;
71869;SDS011;59739;47.696;11.746;2022-11-02T13:55:36;5.25;;;1.42;;
71869;SDS011;59739;47.696;11.746;2022-11-02T13:58:35;2.75;;;1.30;;
71869;SDS011;59739;47.696;11.746;2022-11-02T14:01:11;4.03;;;1.23;;
71869;SDS011;59739;47.696;11.746;2022-11-02T14:03:56;5.97;;;1.90;;
71869;SDS011;59739;47.696;11.746;2022-11-02T14:06:31;3.40;;;1.48;;
71869;SDS011;59739;47.696;11.746;2022-11-02T14:09:09;6.50;;;1.67;;
71869;SDS011;59739;47.696;11.746;2022-11-02T14:11:48;3.42;;;1.38;;
71869;SDS011;59739;47.696;11.746;2022-11-02T14:14:15;4.85;;;1.35;;
71869;SDS011;59739;47.696;11.746;2022-11-02T14:19:24;5.47;;;1.88;;
71869;SDS011;59739;47.696;11.746;2022-11-02T14:22:16;3.47;;;1.60;;
71869;SDS011;59739;47.696;11.746;2022-11-02T14:29:49;8.43;;;3.42;;
71869;SDS011;59739;47.696;11.746;2022-11-02T14:49:29;8.20;;;1.90;;
71869;SDS011;59739;47.696;11.746;2022-11-02T14:52:00;3.17;;;1.58;;
71869;SDS011;59739;47.696;11.746;2022-11-02T14:54:38;4.80;;;1.40;;
71869;SDS011;59739;47.696;11.746;2022-11-02T14:57:38;4.05;;;1.73;;
71869;SDS011;59739;47.696;11.746;2022-11-02T15:00:17;2.90;;;1.45;;
71869;SDS011;59739;47.696;11.746;2022-11-02T15:02:45;6.53;;;1.55;;
71869;SDS011;59739;47.696;11.746;2022-11-02T15:10:44;6.97;;;2.97;;
71869;SDS011;59739;47.696;11.746;2022-11-02T15:26:46;6.47;;;2.58;;
71869;SDS011;59739;47.696;11.746;2022-11-02T15:29:34;7.97;;;2.53;;
71869;SDS011;59739;47.696;11.746;2022-11-02T15:32:10;7.88;;;2.95;;
71869;SDS011;59739;47.696;11.746;2022-11-02T15:34:43;6.13;;;2.70;;
71869;SDS011;59739;47.696;11.746;2022-11-02T15:37:20;4.88;;;2.60;;
71869;SDS011;59739;47.696;11.746;2022-11-02T15:39:50;4.82;;;2.58;;
71869;SDS011;59739;47.696;11.746;2022-11-02T15:42:27;8.32;;;3.28;;
71869;SDS011;59739;47.696;11.746;2022-11-02T15:47:58;7.57;;;3.20;;
71869;SDS011;59739;47.696;11.746;2022-11-02T16:04:57;9.38;;;4.55;;
71869;SDS011;59739;47.696;11.746;2022-11-02T16:07:26;13.25;;;7.03;;
71869;SDS011;59739;47.696;11.746;2022-11-02T16:09:53;20.23;;;15.00;;
71869;SDS011;59739;47.696;11.746;2022-11-02T16:12:37;7.35;;;3.13;;
71869;SDS011;59739;47.696;11.746;2022-11-02T16:15:11;6.70;;;3.75;;
71869;SDS011;59739;47.696;11.746;2022-11-02T16:17:46;7.68;;;3.45;;
71869;SDS011;59739;47.696;11.746;2022-11-02T16:20:24;9.30;;;3.72;;
71869;SDS011;59739;47.696;11.746;2022-11-02T16:22:57;6.38;;;2.10;;
71869;SDS011;59739;47.696;11.746;2022-11-02T16:25:33;8.40;;;2.10;;
71869;SDS011;59739;47.696;11.746;2022-11-02T16:28:19;3.67;;;2.03;;
71869;SDS011;59739;47.696;11.746;2022-11-02T16:33:26;4.20;;;2.42;;
71869;SDS011;59739;47.696;11.746;2022-11-02T16:36:02;6.55;;;2.45;;
71869;SDS011;59739;47.696;11.746;2022-11-02T16:38:30;7.65;;;2.00;;
71869;SDS011;59739;47.696;11.746;2022-11-02T16:40:57;4.80;;;2.22;;
71869;SDS011;59739;47.696;11.746;2022-11-02T16:43:24;4.22;;;1.80;;
71869;SDS011;59739;47.696;11.746;2022-11-02T16:45:57;4.20;;;2.08;;
71869;SDS011;59739;47.696;11.746;2022-11-02T16:48:29;3.30;;;2.00;;
71869;SDS011;59739;47.696;11.746;2022-11-02T16:53:31;4.10;;;2.10;;
71869;SDS011;59739;47.696;11.746;2022-11-02T16:59:03;6.22;;;2.17;;
71869;SDS011;59739;47.696;11.746;2022-11-02T17:01:36;6.10;;;2.25;;
71869;SDS011;59739;47.696;11.746;2022-11-02T17:04:14;3.33;;;1.92;;
71869;SDS011;59739;47.696;11.746;2022-11-02T17:06:54;7.30;;;2.20;;
71869;SDS011;59739;47.696;11.746;2022-11-02T17:09:37;4.47;;;2.03;;
71869;SDS011;59739;47.696;11.746;2022-11-02T17:12:05;5.93;;;2.20;;
71869;SDS011;59739;47.696;11.746;2022-11-02T17:14:41;3.55;;;2.30;;
71869;SDS011;59739;47.696;11.746;2022-11-02T17:22:56;7.38;;;3.10;;
71869;SDS011;59739;47.696;11.746;2022-11-02T17:25:34;13.57;;;3.42;;
71869;SDS011;59739;47.696;11.746;2022-11-02T17:30:59;9.60;;;4.20;;
71869;SDS011;59739;47.696;11.746;2022-11-02T17:33:32;11.98;;;4.97;;
71869;SDS011;59739;47.696;11.746;2022-11-02T17:38:31;8.00;;;4.20;;
71869;SDS011;59739;47.696;11.746;2022-11-02T17:40:58;9.75;;;4.38;;
71869;SDS011;59739;47.696;11.746;2022-11-02T17:43:25;10.00;;;6.13;;
71869;SDS011;59739;47.696;11.746;2022-11-02T17:45:58;12.25;;;5.90;;
71869;SDS011;59739;47.696;11.746;2022-11-02T17:48:25;10.27;;;4.80;;
71869;SDS011;59739;47.696;11.746;2022-11-02T17:50:55;9.98;;;5.28;;
71869;SDS011;59739;47.696;11.746;2022-11-02T17:53:23;9.50;;;5.07;;
71869;SDS011;59739;47.696;11.746;2022-11-02T17:55:49;9.15;;;5.15;;
71869;SDS011;59739;47.696;11.746;2022-11-02T17:58:16;10.30;;;6.07;;
71869;SDS011;59739;47.696;11.746;2022-11-02T18:00:42;6.75;;;4.82;;
71869;SDS011;59739;47.696;11.746;2022-11-02T18:03:17;11.02;;;6.25;;
71869;SDS011;59739;47.696;11.746;2022-11-02T18:05:45;11.38;;;5.63;;
71869;SDS011;59739;47.696;11.746;2022-11-02T18:08:14;10.38;;;5.55;;
71869;SDS011;59739;47.696;11.746;2022-11-02T18:10:40;10.20;;;6.70;;
71869;SDS011;59739;47.696;11.746;2022-11-02T18:13:12;14.40;;;7.10;;
71869;SDS011;59739;47.696;11.746;2022-11-02T18:15:41;13.38;;;7.93;;
71869;SDS011;59739;47.696;11.746;2022-11-02T18:18:07;12.93;;;7.70;;
71869;SDS011;59739;47.696;11.746;2022-11-02T18:20:34;13.95;;;7.57;;
71869;SDS011;59739;47.696;11.746;2022-11-02T18:23:01;13.00;;;8.40;;